Time;durP1;ratioP1;P1;durP2;ratioP2;P2;SDS_P1;SDS_P2;PMS_P1;PMS_P2;Temp;Humidity;BMP_temperature;BMP_pressure;BME280_temperature;BME280_humidity;BME280_pressure;Samples;Min_cycle;Max_cycle;Signal;HPM_P1;HPM_P2
2022/03/12 00:01:04;;;;;;;6.03;3.53;;;23.00;53.80;;;;;;5123110;28;20041;-36
2022/03/12 00:03:31;;;;;;;5.40;3.78;;;23.00;53.80;;;;;;5102245;28;20024;-36
2022/03/12 00:05:59;;;;;;;6.00;3.47;;;22.90;53.80;;;;;;5103640;28;20047;-36
2022/03/12 00:08:34;;;;;;;5.10;3.63;;;22.90;53.70;;;;;;5108363;28;20039;-36
2022/03/12 00:11:01;;;;;;;5.38;3.83;;;22.90;53.60;;;;;;5101421;28;20032;-37
2022/03/12 00:13:27;;;;;;;5.15;3.53;;;22.90;53.60;;;;;;5116948;28;20038;-36
2022/03/12 00:15:58;;;;;;;4.50;3.75;;;22.80;53.50;;;;;;5105711;28;20028;-36
2022/03/12 00:18:25;;;;;;;7.50;4.38;;;22.80;53.50;;;;;;5108071;28;20024;-36
2022/03/12 00:20:51;;;;;;;4.38;3.42;;;22.80;53.50;;;;;;5106951;28;20655;-36
2022/03/12 00:23:18;;;;;;;5.65;3.47;;;22.80;53.70;;;;;;5101332;28;20084;-39
2022/03/12 00:25:48;;;;;;;5.15;3.30;;;22.80;53.80;;;;;;5105294;28;20028;-39
2022/03/12 00:28:16;;;;;;;6.22;3.60;;;22.80;53.90;;;;;;5091121;28;20457;-39
2022/03/12 00:30:42;;;;;;;;;;;22.80;54.00;;;;;;5099993;28;20048;-39
2022/03/12 00:33:09;;;;;;;5.35;3.80;;;22.80;54.20;;;;;;5103989;28;19983;-39
2022/03/12 00:35:35;;;;;;;6.03;3.60;;;22.70;53.90;;;;;;5109517;28;20020;-39
2022/03/12 00:38:01;;;;;;;5.32;3.70;;;22.70;54.00;;;;;;5105440;28;20033;-39
2022/03/12 00:40:27;;;;;;;5.38;3.55;;;22.70;54.00;;;;;;5090053;28;20686;-38
2022/03/12 00:42:53;;;;;;;4.90;3.60;;;22.60;53.90;;;;;;5102397;28;20028;-40
2022/03/12 00:45:19;;;;;;;4.72;3.35;;;22.60;53.90;;;;;;5119489;28;20045;-39
2022/03/12 00:47:48;;;;;;;4.78;3.47;;;22.60;53.90;;;;;;5109753;28;20032;-39
2022/03/12 00:50:14;;;;;;;4.40;3.13;;;22.60;53.90;;;;;;5112242;28;20027;-39
2022/03/12 00:52:40;;;;;;;4.00;3.22;;;22.60;54.10;;;;;;5108737;28;20024;-39
2022/03/12 00:55:06;;;;;;;4.30;3.40;;;22.70;54.10;;;;;;5106128;28;20762;-39
2022/03/12 00:57:32;;;;;;;4.47;3.50;;;22.60;54.70;;;;;;5105253;28;20073;-39
2022/03/12 00:59:58;;;;;;;5.35;3.88;;;22.60;54.10;;;;;;5105242;28;20247;-39
2022/03/12 01:02:25;;;;;;;4.00;3.30;;;22.60;54.10;;;;;;5105301;28;20063;-38
2022/03/12 01:04:51;;;;;;;4.70;3.38;;;22.60;54.10;;;;;;5104824;28;20044;-38
2022/03/12 01:07:37;;;;;;;4.07;3.35;;;22.60;54.10;;;;;;5104941;28;20024;-38
2022/03/12 01:10:04;;;;;;;4.25;3.45;;;22.60;54.10;;;;;;5065989;28;20037;-39
2022/03/12 01:12:30;;;;;;;4.53;3.33;;;22.50;54.00;;;;;;5062925;28;20041;-39
2022/03/12 01:14:56;;;;;;;5.82;3.75;;;22.50;54.00;;;;;;5061816;28;20039;-39
2022/03/12 01:17:22;;;;;;;4.57;3.53;;;22.50;54.00;;;;;;5072342;28;20083;-39
2022/03/12 01:19:48;;;;;;;4.82;3.42;;;22.50;53.90;;;;;;5062133;28;20033;-39
2022/03/12 01:22:20;;;;;;;4.55;3.45;;;22.50;53.90;;;;;;5077240;28;20057;-38
2022/03/12 01:24:49;;;;;;;4.00;3.42;;;22.50;54.20;;;;;;5069964;28;20547;-43
2022/03/12 01:27:15;;;;;;;4.20;3.42;;;22.50;54.30;;;;;;5071201;28;20041;-39
2022/03/12 01:29:42;;;;;;;4.03;3.13;;;22.50;54.40;;;;;;5078252;28;20631;-38
2022/03/12 01:32:11;;;;;;;5.03;3.50;;;22.50;54.40;;;;;;5065480;28;20536;-39
2022/03/12 01:34:37;;;;;;;4.93;3.17;;;22.50;54.40;;;;;;5062711;28;20123;-38
2022/03/12 01:37:04;;;;;;;4.80;3.38;;;22.40;54.40;;;;;;5062242;28;20034;-39
2022/03/12 01:39:30;;;;;;;4.67;3.27;;;22.40;54.30;;;;;;5070000;28;20036;-39
2022/03/12 01:41:57;;;;;;;4.60;3.17;;;22.40;54.30;;;;;;5058633;28;20270;-38
2022/03/12 01:44:23;;;;;;;6.37;3.47;;;22.40;54.30;;;;;;5062465;28;20048;-38
2022/03/12 01:46:49;;;;;;;4.47;3.58;;;22.40;54.20;;;;;;5080467;28;20849;-38
2022/03/12 01:49:18;;;;;;;3.83;3.00;;;22.40;54.20;;;;;;5094183;28;20040;-38
2022/03/12 01:51:46;;;;;;;4.45;3.08;;;22.40;54.40;;;;;;5113454;28;20050;-39
2022/03/12 01:54:13;;;;;;;3.47;2.67;;;22.40;54.50;;;;;;5098307;28;20027;-39
2022/03/12 01:56:39;;;;;;;;;;;22.40;54.60;;;;;;5104401;28;20628;-38
2022/03/12 01:59:06;;;;;;;3.15;2.85;;;22.40;54.60;;;;;;5102006;28;19908;-39
2022/03/12 02:01:32;;;;;;;3.58;2.78;;;22.40;54.60;;;;;;5095447;28;20055;-38
2022/03/12 02:04:02;;;;;;;3.63;2.97;;;22.30;54.60;;;;;;5114015;28;20185;-38
2022/03/12 02:06:28;;;;;;;4.15;2.97;;;22.30;54.50;;;;;;5099056;28;20031;-39
2022/03/12 02:08:58;;;;;;;4.03;3.15;;;22.30;54.50;;;;;;5090982;28;20052;-38
2022/03/12 02:11:28;;;;;;;4.32;2.97;;;22.30;54.50;;;;;;5109958;28;20032;-38
2022/03/12 02:14:15;;;;;;;3.22;2.72;;;22.30;54.50;;;;;;5107181;28;20050;-39
2022/03/12 02:16:48;;;;;;;2.85;2.40;;;22.30;54.60;;;;;;5109850;28;20667;-39
2022/03/12 02:19:14;;;;;;;3.70;2.92;;;22.30;54.80;;;;;;5116393;28;20015;-38
2022/03/12 02:21:49;;;;;;;3.08;2.53;;;22.30;54.80;;;;;;5108040;28;20021;-39
2022/03/12 02:24:17;;;;;;;3.35;2.50;;;22.30;54.90;;;;;;5096923;28;20069;-38
2022/03/12 02:26:44;;;;;;;3.33;2.70;;;22.30;54.80;;;;;;5114793;28;20032;-39
2022/03/12 02:29:12;;;;;;;3.22;2.60;;;22.30;54.80;;;;;;5106385;28;20032;-38
2022/03/12 02:31:45;;;;;;;3.42;2.53;;;22.30;54.80;;;;;;5101780;28;20052;-39
2022/03/12 02:34:12;;;;;;;3.53;2.40;;;22.30;54.70;;;;;;5096976;28;20046;-38
2022/03/12 02:36:39;;;;;;;2.85;2.40;;;22.20;54.70;;;;;;5117188;28;20026;-38
2022/03/12 02:39:06;;;;;;;3.80;2.38;;;22.20;54.60;;;;;;5110629;28;20024;-38
2022/03/12 02:41:32;;;;;;;3.38;2.47;;;22.20;54.80;;;;;;5114640;28;20032;-38
2022/03/12 02:43:58;;;;;;;3.72;2.60;;;22.20;55.00;;;;;;5121572;28;20052;-38
2022/03/12 02:46:31;;;;;;;3.47;2.65;;;22.30;55.00;;;;;;5116426;28;20035;-38
2022/03/12 02:48:58;;;;;;;2.40;2.17;;;22.20;55.00;;;;;;5105114;28;20032;-39
2022/03/12 02:51:25;;;;;;;2.95;2.42;;;22.20;55.00;;;;;;5117398;28;20055;-39
2022/03/12 02:53:55;;;;;;;3.30;2.70;;;22.20;54.90;;;;;;5099484;28;20493;-37
2022/03/12 02:56:24;;;;;;;2.17;1.98;;;22.20;54.90;;;;;;5103386;28;20146;-38
2022/03/12 02:59:12;;;;;;;3.22;2.80;;;22.20;54.90;;;;;;5102953;28;20088;-39
2022/03/12 03:01:38;;;;;;;3.00;2.40;;;22.20;54.80;;;;;;5059263;28;20043;-38
2022/03/12 03:04:04;;;;;;;3.72;2.47;;;22.20;54.80;;;;;;5046230;28;20041;-38
2022/03/12 03:06:31;;;;;;;3.15;2.35;;;22.20;55.00;;;;;;5066498;28;20096;-38
2022/03/12 03:08:57;;;;;;;2.85;2.20;;;22.20;55.10;;;;;;5067289;28;21942;-39
2022/03/12 03:11:26;;;;;;;2.45;2.05;;;22.20;55.10;;;;;;5072095;28;20078;-39
2022/03/12 03:13:54;;;;;;;2.75;2.25;;;22.20;55.10;;;;;;5025881;28;20029;-38
2022/03/12 03:16:23;;;;;;;2.90;2.25;;;22.20;55.00;;;;;;5067277;28;20036;-39
2022/03/12 03:18:51;;;;;;;2.80;1.98;;;22.20;55.00;;;;;;5075992;28;20099;-38
2022/03/12 03:21:22;;;;;;;2.30;2.00;;;22.10;55.00;;;;;;5072445;28;20032;-38
2022/03/12 03:23:49;;;;;;;3.13;1.92;;;22.10;54.90;;;;;;5078971;28;20040;-38
2022/03/12 03:26:20;;;;;;;2.55;2.08;;;22.10;55.50;;;;;;5064184;28;20036;-38
2022/03/12 03:28:46;;;;;;;2.60;2.28;;;22.20;55.20;;;;;;5051076;28;20035;-38
2022/03/12 03:31:12;;;;;;;3.45;2.15;;;22.20;55.30;;;;;;5071232;28;20028;-38
2022/03/12 03:33:38;;;;;;;2.42;1.83;;;22.20;55.30;;;;;;5064472;28;20160;-38
2022/03/12 03:36:05;;;;;;;2.40;2.13;;;22.20;55.20;;;;;;5069672;28;20021;-39
2022/03/12 03:38:31;;;;;;;2.97;2.38;;;22.10;55.10;;;;;;5095160;28;20556;-38
2022/03/12 03:40:57;;;;;;;3.00;2.38;;;22.10;55.10;;;;;;5103385;28;20080;-38
2022/03/12 03:43:24;;;;;;;2.60;2.20;;;22.10;55.10;;;;;;5109047;28;20036;-38
2022/03/12 03:45:52;;;;;;;2.53;2.20;;;22.10;55.00;;;;;;5119801;28;20035;-38
2022/03/12 03:48:19;;;;;;;3.88;2.17;;;22.10;55.10;;;;;;5107272;28;20032;-38
2022/03/12 03:50:46;;;;;;;3.40;2.20;;;22.10;55.30;;;;;;5105473;28;20061;-38
2022/03/12 03:53:14;;;;;;;2.60;2.05;;;22.20;55.30;;;;;;5103950;28;20105;-38
2022/03/12 03:55:41;;;;;;;2.35;1.88;;;22.20;55.30;;;;;;5113433;28;20032;-39
2022/03/12 03:58:07;;;;;;;2.75;2.13;;;22.10;55.30;;;;;;5119640;28;20043;-38
2022/03/12 04:00:33;;;;;;;2.40;2.10;;;22.10;55.20;;;;;;5105130;28;20058;-38
2022/03/12 04:03:02;;;;;;;3.65;2.10;;;22.10;55.10;;;;;;5113266;28;20079;-38
2022/03/12 04:05:34;;;;;;;2.70;2.15;;;22.10;55.10;;;;;;5104707;28;20043;-38
2022/03/12 04:08:00;;;;;;;3.20;1.88;;;22.10;55.10;;;;;;5112633;28;20045;-39
2022/03/12 04:10:27;;;;;;;2.65;1.55;;;22.10;55.30;;;;;;5101717;28;20092;-38
2022/03/12 04:13:21;;;;;;;2.05;1.75;;;22.10;55.40;;;;;;5065075;28;20021;-39
2022/03/12 04:15:48;;;;;;;2.00;1.58;;;22.10;55.30;;;;;;5073915;28;20045;-39
2022/03/12 04:18:15;;;;;;;2.53;1.83;;;22.10;55.30;;;;;;5079984;28;20037;-39
2022/03/12 04:20:48;;;;;;;2.13;1.77;;;22.10;55.30;;;;;;5071044;28;20078;-38
2022/03/12 04:23:18;;;;;;;2.30;1.98;;;22.10;55.20;;;;;;5063851;28;20068;-39
2022/03/12 04:25:48;;;;;;;2.65;2.08;;;22.10;55.20;;;;;;5063667;28;20062;-38
2022/03/12 04:28:14;;;;;;;2.50;1.67;;;22.10;55.10;;;;;;5057378;28;20028;-38
2022/03/12 04:30:41;;;;;;;2.45;1.70;;;22.10;55.20;;;;;;5072130;28;20103;-38
2022/03/12 04:33:09;;;;;;;2.42;2.00;;;22.10;55.40;;;;;;5074803;28;20099;-38
2022/03/12 04:35:35;;;;;;;;;;;22.10;55.40;;;;;;5079735;28;20032;-39
2022/03/12 04:38:03;;;;;;;2.00;1.73;;;22.10;55.40;;;;;;5079767;28;20787;-38
2022/03/12 04:40:29;;;;;;;1.70;1.60;;;22.10;55.30;;;;;;5058719;28;20063;-38
2022/03/12 04:42:55;;;;;;;2.15;1.70;;;22.10;55.20;;;;;;5059629;28;20510;-39
2022/03/12 04:45:26;;;;;;;1.70;1.50;;;22.10;55.20;;;;;;5076606;28;20048;-38
2022/03/12 04:47:52;;;;;;;2.05;1.75;;;22.10;55.20;;;;;;5066659;28;20096;-38
2022/03/12 04:50:19;;;;;;;2.22;1.63;;;22.10;55.20;;;;;;5094717;28;20032;-38
2022/03/12 04:52:53;;;;;;;2.00;1.75;;;22.10;55.40;;;;;;5112150;28;20475;-38
2022/03/12 04:55:20;;;;;;;2.00;1.63;;;22.10;55.40;;;;;;5102492;28;20032;-38
2022/03/12 04:57:47;;;;;;;1.67;1.40;;;22.10;55.40;;;;;;5106050;28;20048;-38
2022/03/12 05:00:26;;;;;;;2.20;1.80;;;22.10;55.40;;;;;;5115840;28;20076;-38
2022/03/12 05:03:14;;;;;;;2.10;1.52;;;22.10;55.30;;;;;;5111320;28;20027;-39
2022/03/12 05:05:45;;;;;;;2.00;1.50;;;22.10;55.30;;;;;;5117542;28;20035;-38
2022/03/12 05:08:25;;;;;;;1.98;1.75;;;22.10;55.20;;;;;;5100979;28;20024;-38
2022/03/12 05:10:55;;;;;;;1.60;1.35;;;22.10;55.80;;;;;;5114917;28;20036;-38
2022/03/12 05:13:23;;;;;;;2.22;1.70;;;22.10;55.50;;;;;;5109491;28;20046;-38
2022/03/12 05:15:51;;;;;;;;;;;22.10;55.60;;;;;;5121280;28;20027;-39
2022/03/12 05:18:18;;;;;;;2.25;1.60;;;22.10;55.50;;;;;;5109864;28;19908;-39
2022/03/12 05:20:44;;;;;;;1.85;1.48;;;22.10;55.50;;;;;;5116393;28;20095;-38
2022/03/12 05:23:10;;;;;;;1.90;1.40;;;22.10;55.40;;;;;;5112674;28;20062;-38
2022/03/12 05:25:41;;;;;;;1.90;1.58;;;22.10;55.40;;;;;;5121184;28;20102;-38
2022/03/12 05:28:08;;;;;;;2.00;1.70;;;22.10;55.40;;;;;;5098333;28;20050;-38
2022/03/12 05:30:34;;;;;;;2.15;1.58;;;22.10;55.30;;;;;;5092233;28;20054;-40
2022/03/12 05:33:01;;;;;;;1.70;1.40;;;22.10;55.50;;;;;;5095337;28;20093;-38
2022/03/12 05:35:27;;;;;;;1.42;1.27;;;22.10;55.60;;;;;;5106051;28;20032;-38
2022/03/12 05:37:53;;;;;;;1.63;1.33;;;22.10;55.60;;;;;;5107190;28;20032;-38
2022/03/12 05:40:20;;;;;;;1.90;1.50;;;22.10;55.60;;;;;;5101343;28;20031;-38
2022/03/12 05:42:47;;;;;;;1.50;1.38;;;22.10;55.50;;;;;;5116427;28;20031;-38
2022/03/12 05:45:14;;;;;;;1.63;1.27;;;22.10;55.50;;;;;;5084588;28;20044;-38
2022/03/12 05:47:41;;;;;;;;;;;22.10;55.40;;;;;;5096823;28;20050;-38
2022/03/12 05:50:10;;;;;;;2.03;1.52;;;22.10;55.30;;;;;;5114618;28;19938;-38
2022/03/12 05:52:45;;;;;;;1.58;1.30;;;22.10;55.50;;;;;;5120444;28;20028;-38
2022/03/12 05:55:12;;;;;;;1.60;1.23;;;22.10;55.60;;;;;;5116881;28;20027;-38
2022/03/12 05:57:39;;;;;;;1.60;1.30;;;22.10;55.60;;;;;;5109257;28;20031;-38
2022/03/12 06:00:10;;;;;;;1.73;1.13;;;22.10;55.60;;;;;;5113886;28;20031;-38
2022/03/12 06:02:37;;;;;;;1.83;1.33;;;22.10;55.60;;;;;;5116672;28;20031;-38
2022/03/12 06:05:03;;;;;;;1.35;1.10;;;22.10;55.50;;;;;;5118891;28;20601;-38
2022/03/12 06:07:29;;;;;;;1.30;1.20;;;22.10;55.40;;;;;;5125262;28;20028;-38
2022/03/12 06:09:55;;;;;;;1.50;1.30;;;22.10;55.30;;;;;;5110717;28;20024;-38
2022/03/12 06:12:24;;;;;;;1.52;1.20;;;22.10;55.50;;;;;;5109482;28;20408;-38
2022/03/12 06:14:55;;;;;;;1.85;1.42;;;22.10;55.70;;;;;;5125010;28;20035;-38
2022/03/12 06:17:24;;;;;;;1.60;1.10;;;22.10;55.70;;;;;;5125065;28;20031;-38
2022/03/12 06:19:51;;;;;;;1.98;1.30;;;22.10;55.70;;;;;;5114493;28;20446;-38
2022/03/12 06:22:17;;;;;;;1.45;1.30;;;22.10;55.60;;;;;;5108062;28;20058;-38
2022/03/12 06:24:45;;;;;;;1.15;1.05;;;22.10;55.60;;;;;;5115810;28;20086;-37
2022/03/12 06:27:12;;;;;;;1.23;1.08;;;22.10;55.50;;;;;;5104029;28;20055;-37
2022/03/12 06:29:39;;;;;;;1.25;1.02;;;22.10;55.40;;;;;;5103792;28;20032;-38
2022/03/12 06:32:07;;;;;;;1.20;1.10;;;22.10;55.40;;;;;;5103445;28;20028;-37
2022/03/12 06:34:35;;;;;;;1.25;1.15;;;22.10;55.60;;;;;;5104286;28;20043;-37
2022/03/12 06:37:02;;;;;;;1.80;1.30;;;22.10;55.70;;;;;;5086877;28;20016;-38
2022/03/12 06:39:28;;;;;;;1.27;1.00;;;22.10;55.70;;;;;;5105716;28;20111;-37
2022/03/12 06:41:55;;;;;;;1.63;0.98;;;22.10;55.70;;;;;;5122787;28;20105;-38
2022/03/12 06:44:22;;;;;;;1.83;1.02;;;22.10;55.60;;;;;;5124304;28;20134;-37
2022/03/12 06:46:50;;;;;;;;;;;22.10;55.50;;;;;;5123240;28;20107;-38
2022/03/12 06:49:16;;;;;;;1.00;0.77;;;22.10;55.50;;;;;;5116024;28;19914;-38
2022/03/12 06:51:42;;;;;;;1.23;0.93;;;22.10;55.40;;;;;;5103478;28;20107;-37
2022/03/12 06:54:08;;;;;;;1.25;0.98;;;22.10;55.50;;;;;;5115129;28;20051;-37
2022/03/12 06:56:39;;;;;;;1.52;1.13;;;22.10;55.70;;;;;;5103824;28;20063;-37
2022/03/12 06:59:06;;;;;;;1.48;1.00;;;22.10;55.80;;;;;;5098860;28;20028;-37
2022/03/12 07:01:32;;;;;;;1.23;0.90;;;22.10;55.80;;;;;;5095428;28;20027;-38
2022/03/12 07:03:58;;;;;;;1.95;1.15;;;22.10;55.70;;;;;;5104037;28;20069;-37
2022/03/12 07:06:25;;;;;;;1.20;0.90;;;22.10;55.60;;;;;;5103796;28;20032;-37
2022/03/12 07:08:51;;;;;;;1.40;1.10;;;22.10;55.50;;;;;;5099561;28;20020;-37
2022/03/12 07:11:18;;;;;;;1.30;1.00;;;22.10;55.50;;;;;;5084631;28;20032;-37
2022/03/12 07:13:44;;;;;;;;;;;22.10;55.50;;;;;;5112985;28;20532;-38
2022/03/12 07:16:10;;;;;;;1.50;0.90;;;22.10;55.40;;;;;;5103622;28;19912;-38
2022/03/12 07:18:38;;;;;;;1.33;0.80;;;22.00;55.30;;;;;;5099338;28;20076;-38
2022/03/12 07:23:52;;;;;;;0.93;0.70;;;22.00;55.20;;;;;;5101233;28;20047;-38
2022/03/12 07:26:20;;;;;;;1.17;0.77;;;22.00;55.20;;;;;;5119673;28;20031;-38
2022/03/12 07:28:47;;;;;;;2.65;0.90;;;22.00;55.20;;;;;;5106451;28;20034;-38
2022/03/12 07:31:15;;;;;;;1.75;1.02;;;22.00;55.10;;;;;;5105701;28;20054;-37
2022/03/12 07:33:41;;;;;;;1.15;0.90;;;21.90;55.10;;;;;;5109082;28;20091;-37
2022/03/12 07:36:07;;;;;;;1.15;0.90;;;21.90;55.10;;;;;;5119703;28;20027;-38
2022/03/12 07:38:33;;;;;;;1.40;0.60;;;21.90;55.10;;;;;;5103434;28;20019;-38
2022/03/12 07:41:00;;;;;;;1.02;0.77;;;21.90;55.00;;;;;;5098313;28;20020;-38
2022/03/12 07:43:26;;;;;;;1.55;0.80;;;21.90;55.00;;;;;;5117341;28;20699;-38
2022/03/12 07:45:52;;;;;;;0.80;0.80;;;21.90;55.50;;;;;;5120322;28;20093;-38
2022/03/12 07:48:18;;;;;;;1.73;0.80;;;21.90;54.90;;;;;;5103666;28;20626;-37
2022/03/12 07:50:46;;;;;;;1.08;0.70;;;21.90;54.90;;;;;;5106159;28;20036;-38
2022/03/12 07:53:12;;;;;;;1.05;0.60;;;21.90;54.90;;;;;;5109947;28;20059;-38
2022/03/12 07:55:40;;;;;;;1.47;0.80;;;21.80;54.80;;;;;;5115174;28;20118;-38
2022/03/12 07:58:06;;;;;;;1.58;0.60;;;21.80;54.80;;;;;;5109064;28;20043;-38
2022/03/12 08:00:32;;;;;;;0.93;0.80;;;21.80;54.80;;;;;;5097779;28;20112;-39
2022/03/12 08:02:58;;;;;;;1.05;0.70;;;21.80;54.80;;;;;;5100324;28;20027;-39
2022/03/12 08:05:25;;;;;;;1.35;0.60;;;21.80;54.80;;;;;;5108077;28;20040;-39
2022/03/12 08:07:54;;;;;;;0.77;0.60;;;21.70;54.80;;;;;;5115000;28;20031;-38
2022/03/12 08:10:21;;;;;;;1.30;0.73;;;21.70;54.80;;;;;;5091966;28;20293;-39
2022/03/12 08:12:48;;;;;;;1.08;0.70;;;21.70;54.80;;;;;;5113331;28;20028;-39
2022/03/12 08:15:15;;;;;;;1.67;0.83;;;21.70;54.80;;;;;;5112216;28;20028;-39
2022/03/12 08:17:41;;;;;;;0.98;0.68;;;21.70;55.40;;;;;;5109022;28;20107;-39
2022/03/12 08:20:08;;;;;;;0.60;0.52;;;21.70;54.80;;;;;;5107088;28;20032;-39
2022/03/12 08:22:45;;;;;;;1.13;0.70;;;21.70;54.80;;;;;;5112541;28;20069;-39
2022/03/12 08:25:12;;;;;;;0.95;0.80;;;21.60;54.80;;;;;;5110049;28;20036;-39
2022/03/12 08:27:39;;;;;;;0.82;0.50;;;21.60;54.80;;;;;;5109505;28;20032;-39
2022/03/12 08:30:07;;;;;;;1.55;0.80;;;21.60;54.80;;;;;;5105863;28;20032;-39
2022/03/12 08:32:35;;;;;;;0.80;0.60;;;21.50;54.70;;;;;;5118405;28;20024;-40
2022/03/12 08:35:05;;;;;;;0.52;0.50;;;21.50;54.70;;;;;;5108125;28;20087;-39
2022/03/12 08:37:33;;;;;;;0.60;0.50;;;21.50;54.70;;;;;;5114813;28;20023;-39
2022/03/12 08:40:02;;;;;;;0.77;0.50;;;21.50;54.60;;;;;;5090933;28;20042;-39
2022/03/12 08:42:28;;;;;;;0.93;0.45;;;21.40;54.60;;;;;;5119260;28;20020;-39
2022/03/12 08:44:55;;;;;;;1.02;0.40;;;21.40;54.60;;;;;;5109227;28;20051;-39
2022/03/12 08:47:21;;;;;;;0.63;0.57;;;21.40;54.50;;;;;;5122881;28;20039;-39
2022/03/12 08:49:48;;;;;;;2.00;0.50;;;21.40;54.50;;;;;;5109834;28;20020;-39
2022/03/12 08:52:14;;;;;;;0.70;0.50;;;21.30;54.40;;;;;;5103562;28;20052;-39
2022/03/12 08:54:40;;;;;;;0.60;0.43;;;21.30;54.40;;;;;;5116206;28;20034;-39
2022/03/12 08:57:06;;;;;;;0.60;0.40;;;21.30;54.40;;;;;;5117618;28;20035;-39
2022/03/12 08:59:33;;;;;;;0.77;0.40;;;21.30;54.40;;;;;;5109067;28;20091;-38
2022/03/12 09:01:59;;;;;;;0.95;0.30;;;21.30;54.30;;;;;;5121924;28;20039;-39
2022/03/12 09:04:25;;;;;;;0.85;0.45;;;21.30;54.30;;;;;;5109781;28;20126;-39
2022/03/12 09:06:52;;;;;;;0.73;0.43;;;21.20;54.20;;;;;;5109852;28;20032;-39
2022/03/12 09:09:18;;;;;;;0.65;0.30;;;21.20;54.20;;;;;;5109237;28;20046;-39
2022/03/12 09:11:44;;;;;;;0.88;0.40;;;21.10;54.70;;;;;;5112757;28;20049;-38
2022/03/12 09:14:10;;;;;;;0.50;0.45;;;21.10;54.10;;;;;;5115422;28;20030;-38
2022/03/12 09:16:37;;;;;;;0.20;0.20;;;21.10;54.10;;;;;;5105521;28;20024;-39
2022/03/12 09:19:07;;;;;;;0.77;0.40;;;21.10;54.10;;;;;;5107685;28;20054;-39
2022/03/12 09:21:34;;;;;;;0.45;0.40;;;21.10;54.10;;;;;;5125691;28;20046;-38
2022/03/12 09:24:03;;;;;;;;;;;21.00;54.00;;;;;;5119824;28;20445;-39
2022/03/12 09:26:29;;;;;;;0.85;0.30;;;21.00;54.00;;;;;;5093678;28;19949;-39
2022/03/12 09:28:55;;;;;;;0.67;0.40;;;20.90;53.90;;;;;;5118120;28;20036;-39
2022/03/12 09:31:22;;;;;;;0.30;0.28;;;20.90;53.90;;;;;;5115742;28;20024;-38
2022/03/12 09:33:48;;;;;;;1.30;0.30;;;20.90;53.90;;;;;;5109457;28;20032;-38
2022/03/12 09:36:15;;;;;;;0.35;0.30;;;20.80;53.80;;;;;;5119828;28;20070;-38
2022/03/12 09:38:41;;;;;;;;;;;20.80;53.80;;;;;;5107155;28;20029;-40
2022/03/12 09:41:07;;;;;;;0.55;0.38;;;20.80;53.70;;;;;;5113877;28;19975;-38
2022/03/12 09:43:34;;;;;;;0.47;0.30;;;20.80;53.70;;;;;;5111897;28;20591;-38
2022/03/12 09:46:00;;;;;;;0.43;0.25;;;20.70;53.60;;;;;;5119304;28;20042;-38
2022/03/12 09:48:26;;;;;;;0.38;0.20;;;20.70;53.60;;;;;;5108338;28;20551;-38
2022/03/12 09:50:52;;;;;;;0.22;0.22;;;20.70;53.60;;;;;;5112403;28;20023;-39
2022/03/12 09:53:19;;;;;;;0.50;0.20;;;20.60;53.60;;;;;;5108071;28;20506;-38
2022/03/12 09:55:45;;;;;;;0.38;0.28;;;20.60;53.50;;;;;;5119051;28;20032;-38
2022/03/12 09:58:11;;;;;;;0.52;0.20;;;20.60;53.50;;;;;;5107864;28;20091;-38
2022/03/12 10:00:37;;;;;;;0.45;0.20;;;20.50;53.50;;;;;;5104126;28;20083;-39
2022/03/12 10:03:05;;;;;;;0.28;0.20;;;20.50;53.40;;;;;;5113857;28;20044;-39
2022/03/12 10:05:31;;;;;;;0.10;0.10;;;20.50;53.50;;;;;;5099713;28;20119;-38
2022/03/12 10:07:57;;;;;;;0.30;0.20;;;20.40;53.40;;;;;;5116334;28;20032;-39
2022/03/12 10:10:25;;;;;;;0.20;0.20;;;20.40;53.40;;;;;;5094528;28;20091;-39
2022/03/12 10:12:51;;;;;;;0.30;0.30;;;20.40;53.30;;;;;;5100475;28;20548;-39
2022/03/12 10:15:17;;;;;;;0.35;0.20;;;20.30;53.20;;;;;;5101290;28;20035;-39
2022/03/12 10:17:44;;;;;;;0.22;0.20;;;20.30;53.20;;;;;;5104428;28;20031;-39
2022/03/12 10:20:11;;;;;;;0.40;0.40;;;20.30;53.20;;;;;;5108952;28;20048;-38
2022/03/12 10:22:39;;;;;;;0.10;0.10;;;20.20;53.20;;;;;;5122652;28;20023;-38
2022/03/12 10:25:06;;;;;;;0.20;0.20;;;20.20;53.20;;;;;;5115481;28;20056;-38
2022/03/12 10:27:33;;;;;;;0.68;0.30;;;20.20;53.20;;;;;;5116737;28;20035;-39
2022/03/12 10:29:59;;;;;;;0.35;0.20;;;20.10;53.20;;;;;;5106723;28;20028;-39
2022/03/12 10:32:30;;;;;;;0.10;0.10;;;20.10;53.20;;;;;;5120372;28;20063;-38
2022/03/12 10:34:59;;;;;;;0.40;0.10;;;20.10;53.20;;;;;;5104880;28;20020;-39
2022/03/12 10:37:31;;;;;;;0.40;0.10;;;20.00;53.20;;;;;;5115558;28;20053;-39
2022/03/12 10:40:14;;;;;;;0.25;0.20;;;20.00;53.20;;;;;;5094867;27;20029;-39
2022/03/12 10:42:57;;;;;;;0.10;0.10;;;20.00;53.20;;;;;;5094678;28;20020;-39
2022/03/12 10:45:25;;;;;;;0.20;0.10;;;20.00;53.40;;;;;;5111488;28;20074;-38
2022/03/12 10:47:59;;;;;;;0.10;0.10;;;20.00;53.50;;;;;;5118750;28;20087;-38
2022/03/12 10:50:27;;;;;;;0.28;0.20;;;20.00;53.60;;;;;;5116222;28;20028;-39
2022/03/12 10:52:55;;;;;;;0.10;0.10;;;20.10;53.80;;;;;;5103839;28;20028;-39
2022/03/12 10:55:28;;;;;;;0.10;0.10;;;20.10;54.00;;;;;;5113161;28;20032;-39
2022/03/12 10:58:07;;;;;;;0.08;0.08;;;20.20;54.10;;;;;;5119115;28;20024;-39
2022/03/12 11:00:50;;;;;;;0.10;0.10;;;20.20;54.10;;;;;;5102168;28;20049;-39
2022/03/12 11:03:24;;;;;;;0.25;0.10;;;20.20;54.00;;;;;;5113215;28;20110;-39
2022/03/12 11:05:51;;;;;;;0.17;0.10;;;20.20;53.90;;;;;;5114453;28;20040;-39
2022/03/12 11:08:21;;;;;;;0.45;0.10;;;20.20;53.80;;;;;;5104486;28;20119;-38
2022/03/12 11:10:58;;;;;;;0.10;0.10;;;20.30;53.80;;;;;;5104045;28;20023;-39
2022/03/12 11:13:43;;;;;;;0.10;0.10;;;20.30;53.80;;;;;;5107019;28;20758;-38
2022/03/12 11:16:21;;;;;;;0.10;0.10;;;20.40;53.90;;;;;;5104767;28;20674;-39
2022/03/12 11:18:54;;;;;;;0.00;0.00;;;20.40;53.90;;;;;;5105266;28;20023;-38
2022/03/12 11:21:43;;;;;;;0.10;0.10;;;20.40;53.70;;;;;;5107962;28;20031;-39
2022/03/12 11:24:17;;;;;;;0.10;0.10;;;20.40;53.60;;;;;;5105505;28;20077;-39
2022/03/12 11:26:51;;;;;;;0.10;0.08;;;20.40;53.30;;;;;;5102416;28;20020;-39
2022/03/12 11:29:20;;;;;;;0.20;0.10;;;20.40;53.30;;;;;;5112954;28;20032;-38
2022/03/12 11:32:05;;;;;;;0.10;0.05;;;20.40;53.00;;;;;;5109340;28;20028;-39
2022/03/12 11:34:41;;;;;;;0.03;0.03;;;20.50;53.00;;;;;;5091131;28;20127;-39
2022/03/12 11:37:13;;;;;;;0.20;0.00;;;20.50;53.00;;;;;;5101432;28;20375;-38
2022/03/12 11:39:41;;;;;;;0.20;0.10;;;20.50;52.90;;;;;;5098658;28;20102;-39
2022/03/12 11:42:15;;;;;;;0.20;0.10;;;20.50;52.70;;;;;;5109213;28;20047;-38
2022/03/12 11:44:53;;;;;;;0.00;0.00;;;20.50;52.60;;;;;;5107926;28;20049;-39
2022/03/12 11:47:23;;;;;;;0.10;0.10;;;20.50;52.40;;;;;;5112188;28;20447;-38
2022/03/12 11:49:50;;;;;;;0.10;0.10;;;20.60;52.50;;;;;;5107216;28;20035;-39
2022/03/12 11:52:16;;;;;;;0.10;0.10;;;20.60;52.40;;;;;;5111146;28;20047;-39
2022/03/12 11:54:43;;;;;;;0.05;0.00;;;20.50;52.30;;;;;;5108297;28;20079;-38
2022/03/12 11:57:11;;;;;;;0.00;0.00;;;20.50;52.10;;;;;;5113368;28;20032;-39
2022/03/12 11:59:38;;;;;;;;;;;20.50;52.00;;;;;;5100311;28;20035;-38
2022/03/12 12:02:31;;;;;;;0.00;0.00;;;20.60;51.90;;;;;;5110864;28;20019;-38
2022/03/12 12:05:10;;;;;;;0.10;0.10;;;20.60;51.90;;;;;;5115365;28;20381;-39
2022/03/12 12:19:23;;;;;;;0.00;0.00;;;20.60;51.20;;;;;;5060959;27;2127643;-40
2022/03/12 12:21:49;;;;;;;;;;;20.80;51.20;;;;;;5119900;28;20036;-40
2022/03/12 12:24:32;;;;;;;0.10;0.10;;;20.70;51.10;;;;;;5119518;28;20870;-40
2022/03/12 12:27:08;;;;;;;0.10;0.10;;;20.70;51.00;;;;;;5118502;28;20040;-40
2022/03/12 12:29:48;;;;;;;0.10;0.10;;;20.70;51.00;;;;;;5120196;28;20024;-40
2022/03/12 12:32:16;;;;;;;0.10;0.10;;;20.70;51.00;;;;;;5119021;28;20088;-40
2022/03/12 12:35:04;;;;;;;0.00;0.00;;;20.70;50.70;;;;;;5120021;28;20027;-40
2022/03/12 12:37:48;;;;;;;0.00;0.00;;;20.70;50.50;;;;;;5115130;28;20035;-41
2022/03/12 12:40:18;;;;;;;0.10;0.10;;;20.70;50.60;;;;;;5109922;28;20104;-40
2022/03/12 12:42:45;;;;;;;0.17;0.10;;;20.70;50.50;;;;;;5104170;28;20032;-41
2022/03/12 12:45:13;;;;;;;0.15;0.05;;;20.60;50.40;;;;;;5102664;28;20028;-40
2022/03/12 12:47:39;;;;;;;0.10;0.10;;;20.70;50.60;;;;;;5101841;28;20072;-40
2022/03/12 12:50:05;;;;;;;0.00;0.00;;;20.70;50.30;;;;;;5099232;28;20794;-40
2022/03/12 12:52:32;;;;;;;0.30;0.10;;;20.70;50.30;;;;;;5104471;28;20031;-40
2022/03/12 12:55:00;;;;;;;0.10;0.10;;;20.70;50.40;;;;;;5085488;28;20730;-40
2022/03/12 12:57:44;;;;;;;0.10;0.10;;;20.70;50.50;;;;;;5102150;28;20047;-41
2022/03/12 13:00:28;;;;;;;0.00;0.00;;;20.70;50.20;;;;;;5103690;28;20024;-41
2022/03/12 13:02:58;;;;;;;0.10;0.10;;;20.70;50.20;;;;;;5098175;28;20036;-41
2022/03/12 13:05:50;;;;;;;0.10;0.10;;;20.70;50.00;;;;;;5099543;28;20534;-41
2022/03/12 13:08:20;;;;;;;0.10;0.03;;;20.70;49.90;;;;;;5097803;28;20035;-41
2022/03/12 13:10:46;;;;;;;0.00;0.00;;;20.60;49.80;;;;;;5095879;28;20062;-41
2022/03/12 13:13:20;;;;;;;0.10;0.10;;;20.60;49.80;;;;;;5102943;28;20038;-41